sensor_id;sensor_type;location;lat;lon;timestamp;temperature;humidity
48589;DHT22;34369;51.174;6.738;2022-09-09T00:00:54;16.10;78.20
48589;DHT22;34369;51.174;6.738;2022-09-09T00:03:33;16.10;78.50
48589;DHT22;34369;51.174;6.738;2022-09-09T00:06:16;16.10;79.40
48589;DHT22;34369;51.174;6.738;2022-09-09T00:09:00;16.10;78.90
48589;DHT22;34369;51.174;6.738;2022-09-09T00:11:39;16.00;79.60
48589;DHT22;34369;51.174;6.738;2022-09-09T00:14:21;16.00;79.60
48589;DHT22;34369;51.174;6.738;2022-09-09T00:17:00;16.00;79.80
48589;DHT22;34369;51.174;6.738;2022-09-09T00:19:40;16.10;79.10
48589;DHT22;34369;51.174;6.738;2022-09-09T00:22:17;15.90;80.00
48589;DHT22;34369;51.174;6.738;2022-09-09T00:24:52;15.90;79.70
48589;DHT22;34369;51.174;6.738;2022-09-09T00:27:29;15.90;79.40
48589;DHT22;34369;51.174;6.738;2022-09-09T00:30:15;15.90;80.40
48589;DHT22;34369;51.174;6.738;2022-09-09T00:32:53;15.80;79.90
48589;DHT22;34369;51.174;6.738;2022-09-09T00:35:32;15.80;80.20
48589;DHT22;34369;51.174;6.738;2022-09-09T00:38:12;15.80;80.60
48589;DHT22;34369;51.174;6.738;2022-09-09T00:40:49;15.80;81.00
48589;DHT22;34369;51.174;6.738;2022-09-09T00:43:28;15.80;81.00
48589;DHT22;34369;51.174;6.738;2022-09-09T00:46:20;15.70;80.50
48589;DHT22;34369;51.174;6.738;2022-09-09T00:49:04;15.80;80.70
48589;DHT22;34369;51.174;6.738;2022-09-09T00:51:48;15.70;80.90
48589;DHT22;34369;51.174;6.738;2022-09-09T00:54:37;15.70;81.40
48589;DHT22;34369;51.174;6.738;2022-09-09T00:57:23;15.80;81.30
48589;DHT22;34369;51.174;6.738;2022-09-09T01:00:18;15.90;81.20
48589;DHT22;34369;51.174;6.738;2022-09-09T01:03:02;15.90;81.50
48589;DHT22;34369;51.174;6.738;2022-09-09T01:05:46;15.70;81.70
48589;DHT22;34369;51.174;6.738;2022-09-09T01:08:39;15.80;81.50
48589;DHT22;34369;51.174;6.738;2022-09-09T01:11:20;15.60;81.60
48589;DHT22;34369;51.174;6.738;2022-09-09T01:13:58;15.80;82.00
48589;DHT22;34369;51.174;6.738;2022-09-09T01:16:34;15.70;82.00
48589;DHT22;34369;51.174;6.738;2022-09-09T01:19:07;15.70;82.60
48589;DHT22;34369;51.174;6.738;2022-09-09T01:22:06;15.70;82.90
48589;DHT22;34369;51.174;6.738;2022-09-09T01:25:01;15.60;83.20
48589;DHT22;34369;51.174;6.738;2022-09-09T01:27:54;15.60;83.40
48589;DHT22;34369;51.174;6.738;2022-09-09T01:30:28;15.60;82.90
48589;DHT22;34369;51.174;6.738;2022-09-09T01:33:00;15.60;82.70
48589;DHT22;34369;51.174;6.738;2022-09-09T01:35:39;15.60;83.10
48589;DHT22;34369;51.174;6.738;2022-09-09T01:38:15;15.60;83.30
48589;DHT22;34369;51.174;6.738;2022-09-09T01:40:47;15.60;83.10
48589;DHT22;34369;51.174;6.738;2022-09-09T01:43:21;15.50;82.90
48589;DHT22;34369;51.174;6.738;2022-09-09T01:45:56;15.60;83.00
48589;DHT22;34369;51.174;6.738;2022-09-09T01:48:31;15.60;83.10
48589;DHT22;34369;51.174;6.738;2022-09-09T01:51:04;15.60;83.20
48589;DHT22;34369;51.174;6.738;2022-09-09T01:53:37;15.60;83.50
48589;DHT22;34369;51.174;6.738;2022-09-09T01:56:18;12.70;81.60
48589;DHT22;34369;51.174;6.738;2022-09-09T01:59:04;15.60;83.70
48589;DHT22;34369;51.174;6.738;2022-09-09T02:01:50;15.60;82.90
48589;DHT22;34369;51.174;6.738;2022-09-09T02:04:38;15.60;83.40
48589;DHT22;34369;51.174;6.738;2022-09-09T02:07:24;15.60;83.70
48589;DHT22;34369;51.174;6.738;2022-09-09T02:10:09;15.60;84.00
48589;DHT22;34369;51.174;6.738;2022-09-09T02:12:45;15.70;83.60
48589;DHT22;34369;51.174;6.738;2022-09-09T02:15:26;15.70;83.70
48589;DHT22;34369;51.174;6.738;2022-09-09T02:18:01;15.70;83.60
48589;DHT22;34369;51.174;6.738;2022-09-09T02:20:38;15.80;83.80
48589;DHT22;34369;51.174;6.738;2022-09-09T02:23:11;15.70;84.20
48589;DHT22;34369;51.174;6.738;2022-09-09T02:25:44;15.70;84.20
48589;DHT22;34369;51.174;6.738;2022-09-09T02:28:18;15.90;84.00
48589;DHT22;34369;51.174;6.738;2022-09-09T02:30:53;15.80;84.50
48589;DHT22;34369;51.174;6.738;2022-09-09T02:33:27;15.90;84.10
48589;DHT22;34369;51.174;6.738;2022-09-09T02:36:01;15.90;84.40
48589;DHT22;34369;51.174;6.738;2022-09-09T02:38:41;15.90;84.20
48589;DHT22;34369;51.174;6.738;2022-09-09T02:41:24;15.90;84.30
48589;DHT22;34369;51.174;6.738;2022-09-09T02:44:00;16.00;83.70
48589;DHT22;34369;51.174;6.738;2022-09-09T02:46:49;15.90;83.30
48589;DHT22;34369;51.174;6.738;2022-09-09T02:49:41;15.90;84.00
48589;DHT22;34369;51.174;6.738;2022-09-09T02:52:23;16.00;83.30
48589;DHT22;34369;51.174;6.738;2022-09-09T02:55:04;16.00;83.60
48589;DHT22;34369;51.174;6.738;2022-09-09T02:57:40;16.00;83.00
48589;DHT22;34369;51.174;6.738;2022-09-09T03:00:15;16.00;83.00
48589;DHT22;34369;51.174;6.738;2022-09-09T03:02:49;16.00;83.30
48589;DHT22;34369;51.174;6.738;2022-09-09T03:05:21;16.00;83.40
48589;DHT22;34369;51.174;6.738;2022-09-09T03:07:54;16.00;83.30
48589;DHT22;34369;51.174;6.738;2022-09-09T03:10:25;16.00;83.20
48589;DHT22;34369;51.174;6.738;2022-09-09T03:12:58;16.00;83.10
48589;DHT22;34369;51.174;6.738;2022-09-09T03:15:30;16.00;83.00
48589;DHT22;34369;51.174;6.738;2022-09-09T03:18:03;16.00;82.50
48589;DHT22;34369;51.174;6.738;2022-09-09T03:20:35;16.00;83.00
48589;DHT22;34369;51.174;6.738;2022-09-09T03:23:07;16.10;82.60
48589;DHT22;34369;51.174;6.738;2022-09-09T03:25:39;16.00;82.90
48589;DHT22;34369;51.174;6.738;2022-09-09T03:28:11;16.00;82.20
48589;DHT22;34369;51.174;6.738;2022-09-09T03:30:43;16.00;82.60
48589;DHT22;34369;51.174;6.738;2022-09-09T03:33:16;16.00;82.10
48589;DHT22;34369;51.174;6.738;2022-09-09T03:35:48;16.00;82.50
48589;DHT22;34369;51.174;6.738;2022-09-09T03:38:21;16.10;82.00
48589;DHT22;34369;51.174;6.738;2022-09-09T03:40:54;16.00;82.40
48589;DHT22;34369;51.174;6.738;2022-09-09T03:43:28;16.00;82.40
48589;DHT22;34369;51.174;6.738;2022-09-09T03:46:00;16.00;82.50
48589;DHT22;34369;51.174;6.738;2022-09-09T03:48:34;16.00;82.30
48589;DHT22;34369;51.174;6.738;2022-09-09T03:51:06;16.00;82.30
48589;DHT22;34369;51.174;6.738;2022-09-09T03:53:38;16.00;82.20
48589;DHT22;34369;51.174;6.738;2022-09-09T03:56:10;15.90;81.70
48589;DHT22;34369;51.174;6.738;2022-09-09T03:58:42;16.00;82.20
48589;DHT22;34369;51.174;6.738;2022-09-09T04:01:14;15.90;81.80
48589;DHT22;34369;51.174;6.738;2022-09-09T04:03:49;13.80;80.80
48589;DHT22;34369;51.174;6.738;2022-09-09T04:06:23;15.90;82.30
48589;DHT22;34369;51.174;6.738;2022-09-09T04:08:56;16.00;82.00
48589;DHT22;34369;51.174;6.738;2022-09-09T04:11:28;15.90;82.30
48589;DHT22;34369;51.174;6.738;2022-09-09T04:14:00;15.90;81.90
48589;DHT22;34369;51.174;6.738;2022-09-09T04:16:32;16.00;81.90
48589;DHT22;34369;51.174;6.738;2022-09-09T04:19:07;16.00;82.00
48589;DHT22;34369;51.174;6.738;2022-09-09T04:21:39;15.90;81.90
48589;DHT22;34369;51.174;6.738;2022-09-09T04:26:43;15.90;81.90
48589;DHT22;34369;51.174;6.738;2022-09-09T04:29:15;15.90;82.50
48589;DHT22;34369;51.174;6.738;2022-09-09T04:31:47;15.90;82.20
48589;DHT22;34369;51.174;6.738;2022-09-09T04:34:21;15.90;82.70
48589;DHT22;34369;51.174;6.738;2022-09-09T04:36:52;16.10;82.40
48589;DHT22;34369;51.174;6.738;2022-09-09T04:39:25;15.90;82.70
48589;DHT22;34369;51.174;6.738;2022-09-09T04:41:57;15.90;82.70
48589;DHT22;34369;51.174;6.738;2022-09-09T04:44:29;15.90;82.70
48589;DHT22;34369;51.174;6.738;2022-09-09T04:47:01;15.90;82.70
48589;DHT22;34369;51.174;6.738;2022-09-09T04:49:34;15.90;82.70
48589;DHT22;34369;51.174;6.738;2022-09-09T04:52:06;16.00;82.90
48589;DHT22;34369;51.174;6.738;2022-09-09T04:54:38;16.00;82.80
48589;DHT22;34369;51.174;6.738;2022-09-09T04:57:11;15.90;82.30
48589;DHT22;34369;51.174;6.738;2022-09-09T05:02:16;15.90;82.20
48589;DHT22;34369;51.174;6.738;2022-09-09T05:04:49;16.00;82.30
48589;DHT22;34369;51.174;6.738;2022-09-09T05:07:21;16.00;82.80
48589;DHT22;34369;51.174;6.738;2022-09-09T05:12:26;16.10;82.40
48589;DHT22;34369;51.174;6.738;2022-09-09T05:14:59;16.10;82.80
48589;DHT22;34369;51.174;6.738;2022-09-09T05:17:31;16.10;82.80
48589;DHT22;34369;51.174;6.738;2022-09-09T05:20:06;16.10;82.90
48589;DHT22;34369;51.174;6.738;2022-09-09T05:22:39;16.20;82.60
48589;DHT22;34369;51.174;6.738;2022-09-09T05:25:11;16.20;82.60
48589;DHT22;34369;51.174;6.738;2022-09-09T05:27:44;16.10;83.00
48589;DHT22;34369;51.174;6.738;2022-09-09T05:30:16;16.20;82.50
48589;DHT22;34369;51.174;6.738;2022-09-09T05:32:49;16.20;82.50
48589;DHT22;34369;51.174;6.738;2022-09-09T05:35:22;16.20;82.50
48589;DHT22;34369;51.174;6.738;2022-09-09T05:37:59;16.20;82.90
48589;DHT22;34369;51.174;6.738;2022-09-09T05:40:32;16.20;82.90
48589;DHT22;34369;51.174;6.738;2022-09-09T05:43:04;16.20;82.80
48589;DHT22;34369;51.174;6.738;2022-09-09T05:45:36;16.30;82.90
48589;DHT22;34369;51.174;6.738;2022-09-09T05:48:08;16.30;82.30
48589;DHT22;34369;51.174;6.738;2022-09-09T05:50:41;16.30;82.90
48589;DHT22;34369;51.174;6.738;2022-09-09T05:53:13;16.30;82.40
48589;DHT22;34369;51.174;6.738;2022-09-09T05:55:45;16.30;82.90
48589;DHT22;34369;51.174;6.738;2022-09-09T05:58:18;16.40;82.90
48589;DHT22;34369;51.174;6.738;2022-09-09T06:00:50;16.40;82.90
48589;DHT22;34369;51.174;6.738;2022-09-09T06:03:22;16.40;82.90
48589;DHT22;34369;51.174;6.738;2022-09-09T06:06:00;16.40;82.80
48589;DHT22;34369;51.174;6.738;2022-09-09T06:08:32;16.50;82.90
48589;DHT22;34369;51.174;6.738;2022-09-09T06:11:09;16.50;82.60
48589;DHT22;34369;51.174;6.738;2022-09-09T06:13:42;16.60;82.70
48589;DHT22;34369;51.174;6.738;2022-09-09T06:16:16;16.70;82.20
48589;DHT22;34369;51.174;6.738;2022-09-09T06:18:49;16.70;82.60
48589;DHT22;34369;51.174;6.738;2022-09-09T06:21:24;16.70;82.50
48589;DHT22;34369;51.174;6.738;2022-09-09T06:23:57;16.80;81.80
48589;DHT22;34369;51.174;6.738;2022-09-09T06:26:30;16.80;81.50
48589;DHT22;34369;51.174;6.738;2022-09-09T06:29:04;16.80;82.00
48589;DHT22;34369;51.174;6.738;2022-09-09T06:31:37;16.90;82.00
48589;DHT22;34369;51.174;6.738;2022-09-09T06:34:09;16.90;81.70
48589;DHT22;34369;51.174;6.738;2022-09-09T06:36:42;17.00;80.70
48589;DHT22;34369;51.174;6.738;2022-09-09T06:39:16;16.90;80.90
48589;DHT22;34369;51.174;6.738;2022-09-09T06:41:48;16.90;80.90
48589;DHT22;34369;51.174;6.738;2022-09-09T06:44:20;17.10;80.40
48589;DHT22;34369;51.174;6.738;2022-09-09T06:46:53;17.10;80.50
48589;DHT22;34369;51.174;6.738;2022-09-09T06:49:25;17.10;80.80
48589;DHT22;34369;51.174;6.738;2022-09-09T06:51:58;17.10;80.10
48589;DHT22;34369;51.174;6.738;2022-09-09T06:54:30;17.20;80.30
48589;DHT22;34369;51.174;6.738;2022-09-09T06:57:02;17.20;80.10
48589;DHT22;34369;51.174;6.738;2022-09-09T06:59:37;17.20;79.90
48589;DHT22;34369;51.174;6.738;2022-09-09T07:02:09;17.40;79.10
48589;DHT22;34369;51.174;6.738;2022-09-09T07:04:41;17.40;79.60
48589;DHT22;34369;51.174;6.738;2022-09-09T07:07:15;17.70;78.80
48589;DHT22;34369;51.174;6.738;2022-09-09T07:09:48;17.60;79.10
48589;DHT22;34369;51.174;6.738;2022-09-09T07:12:20;17.70;79.10
48589;DHT22;34369;51.174;6.738;2022-09-09T07:14:52;17.80;78.40
48589;DHT22;34369;51.174;6.738;2022-09-09T07:17:25;17.90;78.50
48589;DHT22;34369;51.174;6.738;2022-09-09T07:19:58;18.00;78.10
48589;DHT22;34369;51.174;6.738;2022-09-09T07:22:32;18.10;76.50
48589;DHT22;34369;51.174;6.738;2022-09-09T07:25:08;18.10;76.30
48589;DHT22;34369;51.174;6.738;2022-09-09T07:27:40;18.20;76.20
48589;DHT22;34369;51.174;6.738;2022-09-09T07:30:12;18.20;76.30
48589;DHT22;34369;51.174;6.738;2022-09-09T07:32:45;18.30;75.20
48589;DHT22;34369;51.174;6.738;2022-09-09T07:35:17;18.40;74.50
48589;DHT22;34369;51.174;6.738;2022-09-09T07:37:50;18.40;73.70
48589;DHT22;34369;51.174;6.738;2022-09-09T07:40:25;18.50;73.90
48589;DHT22;34369;51.174;6.738;2022-09-09T07:42:58;18.60;73.80
48589;DHT22;34369;51.174;6.738;2022-09-09T07:45:30;18.60;73.00
48589;DHT22;34369;51.174;6.738;2022-09-09T07:48:03;18.60;72.30
48589;DHT22;34369;51.174;6.738;2022-09-09T07:50:36;18.60;72.10
48589;DHT22;34369;51.174;6.738;2022-09-09T07:53:15;18.60;71.70
48589;DHT22;34369;51.174;6.738;2022-09-09T07:55:48;18.60;71.20
48589;DHT22;34369;51.174;6.738;2022-09-09T07:58:21;18.60;71.20
48589;DHT22;34369;51.174;6.738;2022-09-09T08:00:56;18.50;70.70
48589;DHT22;34369;51.174;6.738;2022-09-09T08:03:29;18.60;70.40
48589;DHT22;34369;51.174;6.738;2022-09-09T08:06:06;18.60;69.60
48589;DHT22;34369;51.174;6.738;2022-09-09T08:08:45;18.60;69.40
48589;DHT22;34369;51.174;6.738;2022-09-09T08:11:24;18.60;68.60
48589;DHT22;34369;51.174;6.738;2022-09-09T08:13:57;18.60;68.80
48589;DHT22;34369;51.174;6.738;2022-09-09T08:16:32;18.60;69.30
48589;DHT22;34369;51.174;6.738;2022-09-09T08:19:07;18.60;69.50
48589;DHT22;34369;51.174;6.738;2022-09-09T08:21:40;18.70;69.80
48589;DHT22;34369;51.174;6.738;2022-09-09T08:24:15;18.70;69.40
48589;DHT22;34369;51.174;6.738;2022-09-09T08:26:49;18.70;69.80
48589;DHT22;34369;51.174;6.738;2022-09-09T08:29:22;18.90;69.60
48589;DHT22;34369;51.174;6.738;2022-09-09T08:31:56;19.10;68.90
48589;DHT22;34369;51.174;6.738;2022-09-09T08:34:30;19.10;68.80
48589;DHT22;34369;51.174;6.738;2022-09-09T08:37:03;19.20;68.50
48589;DHT22;34369;51.174;6.738;2022-09-09T08:39:37;19.30;68.50
48589;DHT22;34369;51.174;6.738;2022-09-09T08:42:28;19.40;67.90
48589;DHT22;34369;51.174;6.738;2022-09-09T08:45:18;19.60;67.70
48589;DHT22;34369;51.174;6.738;2022-09-09T08:48:02;19.70;66.90
48589;DHT22;34369;51.174;6.738;2022-09-09T08:50:45;19.80;66.20
48589;DHT22;34369;51.174;6.738;2022-09-09T08:53:22;19.80;66.00
48589;DHT22;34369;51.174;6.738;2022-09-09T08:56:06;19.90;65.80
48589;DHT22;34369;51.174;6.738;2022-09-09T08:58:45;20.00;65.20
48589;DHT22;34369;51.174;6.738;2022-09-09T09:01:52;20.00;65.00
48589;DHT22;34369;51.174;6.738;2022-09-09T09:04:59;20.00;64.30
48589;DHT22;34369;51.174;6.738;2022-09-09T09:07:53;20.00;64.50
48589;DHT22;34369;51.174;6.738;2022-09-09T09:10:41;19.90;63.10
48589;DHT22;34369;51.174;6.738;2022-09-09T09:13:20;19.90;63.20
48589;DHT22;34369;51.174;6.738;2022-09-09T09:15:58;19.90;64.20
48589;DHT22;34369;51.174;6.738;2022-09-09T09:18:32;19.90;62.90
48589;DHT22;34369;51.174;6.738;2022-09-09T09:21:08;19.90;63.10
48589;DHT22;34369;51.174;6.738;2022-09-09T09:23:51;19.80;62.80
48589;DHT22;34369;51.174;6.738;2022-09-09T09:26:30;19.80;62.80
48589;DHT22;34369;51.174;6.738;2022-09-09T09:29:12;19.70;62.90
48589;DHT22;34369;51.174;6.738;2022-09-09T09:31:51;19.80;62.60
48589;DHT22;34369;51.174;6.738;2022-09-09T09:34:26;19.80;63.50
48589;DHT22;34369;51.174;6.738;2022-09-09T09:37:01;19.80;63.40
48589;DHT22;34369;51.174;6.738;2022-09-09T09:39:44;19.80;62.30
48589;DHT22;34369;51.174;6.738;2022-09-09T09:42:18;20.10;62.70
48589;DHT22;34369;51.174;6.738;2022-09-09T09:44:52;20.10;63.00
48589;DHT22;34369;51.174;6.738;2022-09-09T09:47:25;20.20;62.40
48589;DHT22;34369;51.174;6.738;2022-09-09T09:49:59;20.40;61.80
48589;DHT22;34369;51.174;6.738;2022-09-09T09:52:33;20.60;62.10
48589;DHT22;34369;51.174;6.738;2022-09-09T09:55:13;20.70;61.80
48589;DHT22;34369;51.174;6.738;2022-09-09T09:57:49;20.90;60.80
48589;DHT22;34369;51.174;6.738;2022-09-09T10:00:25;21.00;60.60
48589;DHT22;34369;51.174;6.738;2022-09-09T10:02:59;21.10;60.30
48589;DHT22;34369;51.174;6.738;2022-09-09T10:05:45;21.20;60.30
48589;DHT22;34369;51.174;6.738;2022-09-09T10:08:21;21.30;59.60
48589;DHT22;34369;51.174;6.738;2022-09-09T10:11:05;21.40;59.40
48589;DHT22;34369;51.174;6.738;2022-09-09T10:13:50;21.40;58.90
48589;DHT22;34369;51.174;6.738;2022-09-09T10:16:40;21.50;58.70
48589;DHT22;34369;51.174;6.738;2022-09-09T10:19:26;21.50;58.40
48589;DHT22;34369;51.174;6.738;2022-09-09T10:22:22;21.60;58.60
48589;DHT22;34369;51.174;6.738;2022-09-09T10:25:12;21.60;58.00
48589;DHT22;34369;51.174;6.738;2022-09-09T10:28:18;21.60;57.50
48589;DHT22;34369;51.174;6.738;2022-09-09T10:31:11;21.60;57.40
48589;DHT22;34369;51.174;6.738;2022-09-09T10:34:00;21.60;57.20
48589;DHT22;34369;51.174;6.738;2022-09-09T10:36:39;21.60;57.60
48589;DHT22;34369;51.174;6.738;2022-09-09T10:39:24;21.60;57.90
48589;DHT22;34369;51.174;6.738;2022-09-09T10:42:07;21.50;57.40
48589;DHT22;34369;51.174;6.738;2022-09-09T10:45:02;21.50;57.40
48589;DHT22;34369;51.174;6.738;2022-09-09T10:47:55;21.50;56.90
48589;DHT22;34369;51.174;6.738;2022-09-09T10:53:45;21.50;58.00
48589;DHT22;34369;51.174;6.738;2022-09-09T10:56:23;21.40;57.70
48589;DHT22;34369;51.174;6.738;2022-09-09T10:59:00;21.40;58.30
48589;DHT22;34369;51.174;6.738;2022-09-09T11:01:39;21.50;58.10
48589;DHT22;34369;51.174;6.738;2022-09-09T11:04:42;21.50;57.80
48589;DHT22;34369;51.174;6.738;2022-09-09T11:07:25;21.50;57.70
48589;DHT22;34369;51.174;6.738;2022-09-09T11:10:11;21.40;57.10
48589;DHT22;34369;51.174;6.738;2022-09-09T11:12:54;21.40;56.90
48589;DHT22;34369;51.174;6.738;2022-09-09T11:15:35;21.40;57.20
48589;DHT22;34369;51.174;6.738;2022-09-09T11:18:13;21.30;57.70
48589;DHT22;34369;51.174;6.738;2022-09-09T11:20:55;21.30;57.50
48589;DHT22;34369;51.174;6.738;2022-09-09T11:23:39;21.20;58.30
48589;DHT22;34369;51.174;6.738;2022-09-09T11:26:18;21.10;58.00
48589;DHT22;34369;51.174;6.738;2022-09-09T11:29:17;21.10;58.70
48589;DHT22;34369;51.174;6.738;2022-09-09T11:32:09;21.00;59.30
48589;DHT22;34369;51.174;6.738;2022-09-09T11:34:54;21.10;60.20
48589;DHT22;34369;51.174;6.738;2022-09-09T11:37:43;21.20;59.40
48589;DHT22;34369;51.174;6.738;2022-09-09T11:40:28;21.30;59.60
48589;DHT22;34369;51.174;6.738;2022-09-09T11:43:10;21.50;59.80
48589;DHT22;34369;51.174;6.738;2022-09-09T11:45:50;21.50;59.30
48589;DHT22;34369;51.174;6.738;2022-09-09T11:48:31;21.60;59.10
48589;DHT22;34369;51.174;6.738;2022-09-09T11:51:08;21.60;58.60
48589;DHT22;34369;51.174;6.738;2022-09-09T11:53:47;21.60;58.20
48589;DHT22;34369;51.174;6.738;2022-09-09T11:56:27;21.60;58.60
48589;DHT22;34369;51.174;6.738;2022-09-09T11:59:05;21.50;58.00
48589;DHT22;34369;51.174;6.738;2022-09-09T12:01:50;21.50;57.80
48589;DHT22;34369;51.174;6.738;2022-09-09T12:04:47;21.40;58.00
48589;DHT22;34369;51.174;6.738;2022-09-09T12:07:40;21.30;58.50
48589;DHT22;34369;51.174;6.738;2022-09-09T12:10:27;21.40;59.00
48589;DHT22;34369;51.174;6.738;2022-09-09T12:13:22;21.40;59.40
48589;DHT22;34369;51.174;6.738;2022-09-09T12:16:00;21.50;59.40
48589;DHT22;34369;51.174;6.738;2022-09-09T12:18:37;21.70;58.70
48589;DHT22;34369;51.174;6.738;2022-09-09T12:21:18;21.80;58.30
48589;DHT22;34369;51.174;6.738;2022-09-09T12:23:56;22.00;58.20
48589;DHT22;34369;51.174;6.738;2022-09-09T12:26:34;22.10;58.10
48589;DHT22;34369;51.174;6.738;2022-09-09T12:29:15;22.20;58.10
48589;DHT22;34369;51.174;6.738;2022-09-09T12:32:00;22.30;57.00
48589;DHT22;34369;51.174;6.738;2022-09-09T12:34:39;22.30;55.90
48589;DHT22;34369;51.174;6.738;2022-09-09T12:37:18;22.30;56.00
48589;DHT22;34369;51.174;6.738;2022-09-09T12:39:59;22.30;56.10
48589;DHT22;34369;51.174;6.738;2022-09-09T12:42:40;22.30;55.90
48589;DHT22;34369;51.174;6.738;2022-09-09T12:45:16;22.20;55.70
48589;DHT22;34369;51.174;6.738;2022-09-09T12:47:53;22.20;55.90
48589;DHT22;34369;51.174;6.738;2022-09-09T12:50:43;22.20;56.50
48589;DHT22;34369;51.174;6.738;2022-09-09T12:53:23;22.10;55.90
48589;DHT22;34369;51.174;6.738;2022-09-09T12:55:59;22.10;56.30
48589;DHT22;34369;51.174;6.738;2022-09-09T12:58:36;22.00;56.60
48589;DHT22;34369;51.174;6.738;2022-09-09T13:01:21;22.10;57.20
48589;DHT22;34369;51.174;6.738;2022-09-09T13:03:58;22.10;58.10
48589;DHT22;34369;51.174;6.738;2022-09-09T13:06:32;22.30;59.10
48589;DHT22;34369;51.174;6.738;2022-09-09T13:09:05;22.40;59.10
48589;DHT22;34369;51.174;6.738;2022-09-09T13:11:40;22.60;58.10
48589;DHT22;34369;51.174;6.738;2022-09-09T13:14:17;22.80;57.40
48589;DHT22;34369;51.174;6.738;2022-09-09T13:16:58;23.00;57.10
48589;DHT22;34369;51.174;6.738;2022-09-09T13:19:43;23.00;56.30
48589;DHT22;34369;51.174;6.738;2022-09-09T13:22:21;23.10;56.60
48589;DHT22;34369;51.174;6.738;2022-09-09T13:25:06;23.30;56.90
48589;DHT22;34369;51.174;6.738;2022-09-09T13:27:56;23.40;56.40
48589;DHT22;34369;51.174;6.738;2022-09-09T13:30:36;23.50;55.10
48589;DHT22;34369;51.174;6.738;2022-09-09T13:33:22;23.40;54.70
48589;DHT22;34369;51.174;6.738;2022-09-09T13:35:59;23.40;54.60
48589;DHT22;34369;51.174;6.738;2022-09-09T13:38:56;23.30;54.40
48589;DHT22;34369;51.174;6.738;2022-09-09T13:41:41;23.20;55.10
48589;DHT22;34369;51.174;6.738;2022-09-09T13:44:21;23.10;55.00
48589;DHT22;34369;51.174;6.738;2022-09-09T13:47:05;23.00;54.80
48589;DHT22;34369;51.174;6.738;2022-09-09T13:49:38;22.90;55.10
48589;DHT22;34369;51.174;6.738;2022-09-09T13:52:13;22.80;55.30
48589;DHT22;34369;51.174;6.738;2022-09-09T13:54:48;22.70;55.20
48589;DHT22;34369;51.174;6.738;2022-09-09T13:57:22;22.60;55.60
48589;DHT22;34369;51.174;6.738;2022-09-09T13:59:55;22.40;55.50
48589;DHT22;34369;51.174;6.738;2022-09-09T14:02:28;22.30;55.30
48589;DHT22;34369;51.174;6.738;2022-09-09T14:05:13;22.20;56.10
48589;DHT22;34369;51.174;6.738;2022-09-09T14:07:56;22.20;56.60
48589;DHT22;34369;51.174;6.738;2022-09-09T14:10:33;22.10;56.10
48589;DHT22;34369;51.174;6.738;2022-09-09T14:13:08;22.00;56.50
48589;DHT22;34369;51.174;6.738;2022-09-09T14:15:40;22.00;56.60
48589;DHT22;34369;51.174;6.738;2022-09-09T14:18:13;22.00;56.50
48589;DHT22;34369;51.174;6.738;2022-09-09T14:20:45;21.90;56.60
48589;DHT22;34369;51.174;6.738;2022-09-09T14:23:19;21.90;56.20
48589;DHT22;34369;51.174;6.738;2022-09-09T14:25:52;21.90;56.10
48589;DHT22;34369;51.174;6.738;2022-09-09T14:28:24;21.80;56.20
48589;DHT22;34369;51.174;6.738;2022-09-09T14:30:59;21.80;56.10
48589;DHT22;34369;51.174;6.738;2022-09-09T14:33:32;21.70;56.40
48589;DHT22;34369;51.174;6.738;2022-09-09T14:36:05;21.60;56.40
48589;DHT22;34369;51.174;6.738;2022-09-09T14:38:42;21.30;55.50
48589;DHT22;34369;51.174;6.738;2022-09-09T14:41:15;21.30;56.10
48589;DHT22;34369;51.174;6.738;2022-09-09T14:43:48;21.00;56.50
48589;DHT22;34369;51.174;6.738;2022-09-09T14:46:22;21.00;57.60
48589;DHT22;34369;51.174;6.738;2022-09-09T14:48:54;20.80;57.90
48589;DHT22;34369;51.174;6.738;2022-09-09T14:51:27;20.60;58.50
48589;DHT22;34369;51.174;6.738;2022-09-09T14:54:02;20.40;58.90
48589;DHT22;34369;51.174;6.738;2022-09-09T14:56:34;20.10;59.40
48589;DHT22;34369;51.174;6.738;2022-09-09T14:59:07;19.70;60.00
48589;DHT22;34369;51.174;6.738;2022-09-09T15:01:39;19.30;60.20
48589;DHT22;34369;51.174;6.738;2022-09-09T15:04:13;19.30;61.40
48589;DHT22;34369;51.174;6.738;2022-09-09T15:06:47;19.10;62.40
48589;DHT22;34369;51.174;6.738;2022-09-09T15:09:22;18.80;63.10
48589;DHT22;34369;51.174;6.738;2022-09-09T15:12:00;18.70;65.10
48589;DHT22;34369;51.174;6.738;2022-09-09T15:14:34;18.60;65.70
48589;DHT22;34369;51.174;6.738;2022-09-09T15:17:09;18.50;66.40
48589;DHT22;34369;51.174;6.738;2022-09-09T15:19:41;18.40;67.40
48589;DHT22;34369;51.174;6.738;2022-09-09T15:22:14;18.40;68.10
48589;DHT22;34369;51.174;6.738;2022-09-09T15:24:47;18.30;68.30
48589;DHT22;34369;51.174;6.738;2022-09-09T15:27:19;18.20;69.50
48589;DHT22;34369;51.174;6.738;2022-09-09T15:29:52;18.30;70.10
48589;DHT22;34369;51.174;6.738;2022-09-09T15:32:24;18.40;69.90
48589;DHT22;34369;51.174;6.738;2022-09-09T15:34:57;18.30;70.70
48589;DHT22;34369;51.174;6.738;2022-09-09T15:37:29;18.30;70.30
48589;DHT22;34369;51.174;6.738;2022-09-09T15:40:03;18.30;70.60
48589;DHT22;34369;51.174;6.738;2022-09-09T15:45:10;18.20;71.40
48589;DHT22;34369;51.174;6.738;2022-09-09T15:47:44;18.30;71.90
48589;DHT22;34369;51.174;6.738;2022-09-09T15:50:21;18.20;72.20
48589;DHT22;34369;51.174;6.738;2022-09-09T15:52:58;18.00;72.80
48589;DHT22;34369;51.174;6.738;2022-09-09T15:55:35;18.10;73.40
48589;DHT22;34369;51.174;6.738;2022-09-09T15:58:07;18.10;73.80
48589;DHT22;34369;51.174;6.738;2022-09-09T16:00:40;18.00;74.80
48589;DHT22;34369;51.174;6.738;2022-09-09T16:03:12;17.90;75.20
48589;DHT22;34369;51.174;6.738;2022-09-09T16:08:16;17.80;75.10
48589;DHT22;34369;51.174;6.738;2022-09-09T16:10:50;17.80;76.20
48589;DHT22;34369;51.174;6.738;2022-09-09T16:13:22;17.80;76.20
48589;DHT22;34369;51.174;6.738;2022-09-09T16:15:55;17.80;76.10
48589;DHT22;34369;51.174;6.738;2022-09-09T16:18:32;17.70;76.30
48589;DHT22;34369;51.174;6.738;2022-09-09T16:21:06;17.70;77.00
48589;DHT22;34369;51.174;6.738;2022-09-09T16:23:41;17.70;76.80
48589;DHT22;34369;51.174;6.738;2022-09-09T16:26:16;17.70;77.00
48589;DHT22;34369;51.174;6.738;2022-09-09T16:28:50;17.70;77.50
48589;DHT22;34369;51.174;6.738;2022-09-09T16:31:25;17.60;78.00
48589;DHT22;34369;51.174;6.738;2022-09-09T16:36:37;17.60;78.00
48589;DHT22;34369;51.174;6.738;2022-09-09T16:39:13;17.60;79.00
48589;DHT22;34369;51.174;6.738;2022-09-09T16:41:48;17.60;78.70
48589;DHT22;34369;51.174;6.738;2022-09-09T16:44:22;17.60;79.10
48589;DHT22;34369;51.174;6.738;2022-09-09T16:46:56;17.50;79.40
48589;DHT22;34369;51.174;6.738;2022-09-09T16:49:30;17.60;79.60
48589;DHT22;34369;51.174;6.738;2022-09-09T16:52:03;17.50;79.70